createdAt,value
2019-04-30T00:00:38.517Z,22.60
2019-04-30T00:03:11.564Z,24.23
2019-04-30T00:05:39.114Z,22.67
2019-04-30T00:08:07.961Z,23.03
2019-04-30T00:10:41.166Z,22.73
2019-04-30T00:13:10.462Z,22.43
2019-04-30T00:15:37.812Z,23.40
2019-04-30T00:18:06.597Z,23.23
2019-04-30T00:20:38.541Z,22.77
2019-04-30T00:23:06.806Z,22.67
2019-04-30T00:25:35.787Z,22.00
2019-04-30T00:28:08.476Z,22.47
2019-04-30T00:30:35.162Z,22.67
2019-04-30T00:33:06.026Z,21.90
2019-04-30T00:35:35.607Z,23.50
2019-04-30T00:38:05.094Z,22.00
2019-04-30T00:40:35.171Z,22.90
2019-04-30T00:43:07.553Z,23.37
2019-04-30T00:45:35.326Z,22.70
2019-04-30T00:48:05.877Z,21.67
2019-04-30T00:50:37.237Z,23.40
2019-04-30T00:53:12.223Z,21.13
2019-04-30T00:55:40.248Z,19.97
2019-04-30T00:58:06.872Z,20.97
2019-04-30T01:00:37.220Z,21.97
2019-04-30T01:03:10.256Z,20.50
2019-04-30T01:05:39.714Z,20.27
2019-04-30T01:08:09.171Z,19.20
2019-04-30T01:10:38.095Z,19.47
2019-04-30T01:13:10.653Z,18.03
2019-04-30T01:15:38.970Z,18.40
2019-04-30T01:18:09.238Z,17.57
2019-04-30T01:20:38.613Z,18.83
2019-04-30T01:23:11.329Z,18.77
2019-04-30T01:25:38.952Z,18.20
2019-04-30T01:28:08.407Z,16.57
2019-04-30T01:30:39.371Z,16.57
2019-04-30T01:33:09.168Z,16.50
2019-04-30T01:35:38.198Z,16.37
2019-04-30T01:38:12.369Z,16.13
2019-04-30T01:40:42.796Z,16.63
2019-04-30T01:43:12.611Z,15.93
2019-04-30T01:45:41.383Z,15.77
2019-04-30T01:48:12.678Z,16.30
2019-04-30T01:50:42.074Z,15.77
2019-04-30T01:53:13.077Z,14.93
2019-04-30T01:55:54.489Z,15.67
2019-04-30T01:58:33.267Z,16.43
2019-04-30T02:01:14.466Z,15.70
2019-04-30T02:03:42.899Z,15.40
2019-04-30T02:06:11.692Z,13.93
2019-04-30T02:08:40.129Z,14.40
2019-04-30T02:11:09.076Z,13.13
2019-04-30T02:13:39.214Z,13.50
2019-04-30T02:16:08.671Z,12.73
2019-04-30T02:18:39.286Z,11.90
2019-04-30T02:21:08.959Z,11.77
2019-04-30T02:23:39.238Z,12.00
2019-04-30T02:26:08.626Z,11.47
2019-04-30T02:28:39.273Z,12.00
2019-04-30T02:31:09.232Z,10.87
2019-04-30T02:33:40.476Z,10.80
2019-04-30T02:36:22.836Z,11.27
2019-04-30T02:38:53.193Z,10.87
2019-04-30T02:41:23.371Z,10.60
2019-04-30T02:43:53.374Z,11.27
2019-04-30T02:46:24.191Z,11.67
2019-04-30T02:48:54.060Z,10.77
2019-04-30T02:51:25.896Z,10.17
2019-04-30T02:54:03.371Z,11.43
2019-04-30T02:56:31.986Z,11.93
2019-04-30T02:59:03.730Z,13.37
2019-04-30T03:01:30.936Z,11.93
2019-04-30T03:03:59.932Z,13.27
2019-04-30T03:06:30.373Z,12.77
2019-04-30T03:09:01.044Z,14.50
2019-04-30T03:11:30.292Z,14.33
2019-04-30T03:13:59.396Z,13.30
2019-04-30T03:16:32.450Z,13.80
2019-04-30T03:19:19.624Z,14.73
2019-04-30T03:22:06.046Z,14.53
2019-04-30T03:24:34.748Z,15.73
2019-04-30T03:27:03.435Z,15.93
2019-04-30T03:29:32.338Z,16.13
2019-04-30T03:32:02.580Z,17.17
2019-04-30T03:34:33.076Z,17.77
2019-04-30T03:37:02.267Z,18.03
2019-04-30T03:39:33.782Z,18.63
2019-04-30T03:42:01.765Z,19.43
2019-04-30T03:44:32.403Z,19.27
2019-04-30T03:47:00.406Z,19.27
2019-04-30T03:49:29.929Z,19.70
2019-04-30T03:51:59.790Z,21.30
2019-04-30T03:54:29.276Z,20.23
2019-04-30T03:57:00.740Z,21.13
2019-04-30T03:59:30.300Z,20.80
2019-04-30T04:02:00.606Z,20.63
2019-04-30T04:04:39.833Z,20.70
2019-04-30T04:07:20.358Z,20.03
2019-04-30T04:10:06.504Z,20.80
2019-04-30T04:12:35.220Z,19.40
2019-04-30T04:15:04.827Z,22.00
2019-04-30T04:17:33.337Z,23.37
2019-04-30T04:20:02.077Z,22.50
2019-04-30T04:22:30.993Z,23.70
2019-04-30T04:25:00.207Z,23.47
2019-04-30T04:27:30.201Z,22.77
2019-04-30T04:30:01.122Z,22.03
2019-04-30T04:32:30.825Z,22.27
2019-04-30T04:35:00.331Z,21.90
2019-04-30T04:37:30.178Z,21.83
2019-04-30T04:39:59.592Z,21.23
2019-04-30T04:42:32.387Z,22.77
2019-04-30T04:44:59.449Z,22.07
2019-04-30T04:47:30.802Z,21.80
2019-04-30T04:50:00.682Z,22.63
2019-04-30T04:52:31.560Z,21.90
2019-04-30T04:55:00.449Z,20.33
2019-04-30T04:57:30.353Z,21.27
2019-04-30T05:00:06.379Z,22.37
2019-04-30T05:02:39.512Z,21.20
2019-04-30T05:05:09.627Z,21.63
2019-04-30T05:07:39.924Z,22.23
2019-04-30T05:10:09.301Z,21.23
2019-04-30T05:12:39.859Z,21.63
2019-04-30T05:15:29.513Z,20.87
2019-04-30T05:17:59.218Z,21.63
2019-04-30T05:20:29.189Z,20.37
2019-04-30T05:22:58.514Z,20.50
2019-04-30T05:25:29.465Z,20.73
2019-04-30T05:27:58.706Z,20.33
2019-04-30T05:30:29.339Z,20.77
2019-04-30T05:32:58.881Z,21.80
2019-04-30T05:35:28.375Z,21.57
2019-04-30T05:37:59.281Z,20.63
2019-04-30T05:40:28.740Z,20.33
2019-04-30T05:42:57.556Z,20.67
2019-04-30T05:45:26.027Z,20.03
2019-04-30T05:47:54.743Z,20.37
2019-04-30T05:50:23.590Z,20.83
2019-04-30T05:52:52.159Z,20.90
2019-04-30T05:55:20.864Z,20.03
2019-04-30T05:57:56.037Z,21.80
2019-04-30T06:00:20.207Z,20.67
2019-04-30T06:02:49.824Z,20.33
2019-04-30T06:05:18.898Z,21.23
2019-04-30T06:07:51.650Z,20.60
2019-04-30T06:10:19.849Z,20.53
2019-04-30T06:12:52.635Z,20.73
2019-04-30T06:15:40.948Z,19.80
2019-04-30T06:18:13.625Z,22.00
2019-04-30T06:20:39.848Z,22.00
2019-04-30T06:23:09.523Z,18.33
2019-04-30T06:25:55.264Z,20.93
2019-04-30T06:28:09.726Z,19.63
2019-04-30T06:30:39.656Z,19.37
2019-04-30T06:33:09.241Z,19.60
2019-04-30T06:35:39.240Z,18.43
2019-04-30T06:38:08.583Z,17.93
2019-04-30T06:40:39.008Z,19.40
2019-04-30T06:43:09.078Z,17.37
2019-04-30T06:45:38.794Z,18.40
2019-04-30T06:48:08.927Z,18.37
2019-04-30T06:50:39.304Z,18.27
2019-04-30T06:53:09.297Z,17.93
2019-04-30T06:55:39.260Z,18.07
2019-04-30T06:58:14.127Z,18.13
2019-04-30T07:00:40.157Z,17.70
2019-04-30T07:03:09.799Z,17.67
2019-04-30T07:05:39.242Z,18.83
2019-04-30T07:08:36.303Z,18.87
2019-04-30T07:11:14.029Z,16.33
2019-04-30T07:13:44.108Z,18.50
2019-04-30T07:16:12.869Z,17.23
2019-04-30T07:18:41.320Z,17.03
2019-04-30T07:21:10.118Z,17.87
2019-04-30T07:23:38.806Z,17.23
2019-04-30T07:26:09.014Z,18.20
2019-04-30T07:28:44.645Z,17.50
2019-04-30T07:31:14.077Z,17.83
2019-04-30T07:33:39.630Z,17.40
2019-04-30T07:36:09.635Z,17.00
2019-04-30T07:38:45.674Z,16.87
2019-04-30T07:41:09.579Z,17.27
2019-04-30T07:43:39.267Z,16.50
2019-04-30T07:46:09.271Z,17.70
2019-04-30T07:48:40.237Z,16.77
2019-04-30T07:51:10.415Z,17.33
2019-04-30T07:53:40.389Z,17.53
2019-04-30T07:56:24.142Z,17.70
2019-04-30T07:58:39.645Z,18.30
2019-04-30T08:01:10.324Z,18.67
2019-04-30T08:03:40.346Z,18.53
2019-04-30T08:06:10.106Z,18.33
2019-04-30T08:08:40.919Z,17.47
2019-04-30T08:11:22.743Z,18.37
2019-04-30T08:13:41.121Z,17.87
2019-04-30T08:16:10.337Z,17.63
2019-04-30T08:18:39.271Z,17.70
2019-04-30T08:21:09.451Z,16.17
2019-04-30T08:23:39.743Z,16.80
2019-04-30T08:26:08.937Z,16.73
2019-04-30T08:28:38.717Z,17.33
2019-04-30T08:31:08.981Z,16.47
2019-04-30T08:33:39.994Z,14.60
2019-04-30T08:36:09.416Z,15.70
2019-04-30T08:38:39.469Z,15.83
2019-04-30T08:41:09.296Z,15.80
2019-04-30T08:43:39.397Z,14.53
2019-04-30T08:46:09.401Z,15.33
2019-04-30T08:48:50.035Z,14.77
2019-04-30T08:51:09.960Z,15.23
2019-04-30T08:53:40.908Z,14.70
2019-04-30T08:56:10.108Z,14.57
2019-04-30T08:58:39.161Z,13.80
2019-04-30T09:01:08.800Z,14.57
2019-04-30T09:03:39.146Z,14.83
2019-04-30T09:06:09.409Z,14.63
2019-04-30T09:08:40.036Z,13.73
2019-04-30T09:11:22.135Z,12.00
2019-04-30T09:13:38.983Z,11.77
2019-04-30T09:16:09.309Z,12.13
2019-04-30T09:18:39.351Z,12.30
2019-04-30T09:21:08.986Z,12.30
2019-04-30T09:23:44.675Z,12.07
2019-04-30T09:26:08.681Z,12.35
2019-04-30T09:28:40.856Z,11.65
2019-04-30T09:31:08.758Z,11.38
2019-04-30T09:33:39.238Z,10.63
2019-04-30T09:36:09.160Z,10.88
2019-04-30T09:38:38.927Z,11.25
2019-04-30T09:41:09.159Z,11.40
2019-04-30T09:43:37.810Z,10.60
2019-04-30T09:46:17.922Z,10.48
2019-04-30T09:48:38.602Z,10.15
2019-04-30T09:51:10.369Z,9.30
2019-04-30T09:53:39.486Z,9.23
2019-04-30T09:56:09.542Z,9.48
2019-04-30T09:58:39.356Z,8.93
2019-04-30T10:01:09.432Z,7.58
2019-04-30T10:03:39.167Z,7.85
2019-04-30T10:06:08.918Z,8.00
2019-04-30T10:08:47.820Z,9.55
2019-04-30T10:11:09.821Z,9.38
2019-04-30T10:13:38.698Z,9.45
2019-04-30T10:16:14.637Z,8.65
2019-04-30T10:18:43.238Z,8.83
2019-04-30T10:21:11.680Z,8.95
2019-04-30T10:23:40.127Z,8.45
2019-04-30T10:26:09.075Z,8.33
2019-04-30T10:28:40.923Z,8.50
2019-04-30T10:31:09.363Z,8.13
2019-04-30T10:33:38.637Z,8.90
2019-04-30T10:36:09.280Z,8.78
2019-04-30T10:38:39.350Z,9.50
2019-04-30T10:41:08.829Z,9.65
2019-04-30T10:43:39.356Z,8.75
2019-04-30T10:46:09.673Z,8.93
2019-04-30T10:48:38.319Z,8.80
2019-04-30T10:51:08.928Z,8.48
2019-04-30T10:53:37.244Z,8.25
2019-04-30T10:56:06.151Z,9.03
2019-04-30T10:58:34.846Z,8.68
2019-04-30T11:01:03.710Z,8.18
2019-04-30T11:03:32.311Z,8.83
2019-04-30T11:06:01.078Z,8.13
2019-04-30T11:08:29.589Z,7.12
2019-04-30T11:10:58.055Z,8.23
2019-04-30T11:13:26.497Z,8.48
2019-04-30T11:15:54.940Z,8.18
2019-04-30T11:18:23.862Z,8.20
2019-04-30T11:20:53.010Z,8.25
2019-04-30T11:23:21.674Z,7.92
2019-04-30T11:25:51.449Z,8.00
2019-04-30T11:28:20.784Z,7.85
2019-04-30T11:30:51.903Z,7.62
2019-04-30T11:33:20.903Z,8.55
2019-04-30T11:36:01.688Z,7.95
2019-04-30T11:38:20.530Z,7.50
2019-04-30T11:40:49.403Z,8.15
2019-04-30T11:43:18.259Z,7.87
2019-04-30T11:45:54.243Z,7.53
2019-04-30T11:48:22.830Z,8.10
2019-04-30T11:50:51.269Z,7.12
2019-04-30T11:53:25.392Z,9.80
2019-04-30T11:55:50.431Z,8.63
2019-04-30T11:58:21.634Z,7.12
2019-04-30T12:00:49.919Z,7.42
2019-04-30T12:03:19.167Z,8.20
2019-04-30T12:05:49.035Z,7.85
2019-04-30T12:08:21.987Z,7.35
2019-04-30T12:10:52.332Z,7.72
2019-04-30T12:13:25.332Z,7.87
2019-04-30T12:15:54.443Z,8.30
2019-04-30T12:18:23.392Z,8.05
2019-04-30T12:20:51.905Z,7.70
2019-04-30T12:23:20.620Z,7.15
2019-04-30T12:25:49.321Z,7.60
2019-04-30T12:28:19.535Z,8.03
2019-04-30T12:30:49.010Z,7.75
2019-04-30T12:33:19.155Z,7.05
2019-04-30T12:35:50.865Z,7.50
2019-04-30T12:38:19.183Z,7.75
2019-04-30T12:40:48.059Z,6.97
2019-04-30T12:43:16.576Z,7.33
2019-04-30T12:45:45.025Z,7.35
2019-04-30T12:48:20.034Z,7.25
2019-04-30T12:50:49.911Z,6.97
2019-04-30T12:53:20.236Z,6.20
2019-04-30T12:56:02.495Z,6.85
2019-04-30T12:58:31.196Z,6.60
2019-04-30T13:00:59.964Z,7.03
2019-04-30T13:03:30.665Z,6.65
2019-04-30T13:06:01.323Z,6.25
2019-04-30T13:08:30.187Z,6.45
2019-04-30T13:10:59.411Z,6.22
2019-04-30T13:13:31.427Z,7.33
2019-04-30T13:16:00.004Z,6.53
2019-04-30T13:18:29.594Z,5.90
2019-04-30T13:20:58.906Z,6.30
2019-04-30T13:23:27.546Z,6.92
2019-04-30T13:25:56.367Z,6.97
2019-04-30T13:28:26.695Z,6.03
2019-04-30T13:30:55.384Z,6.42
2019-04-30T13:33:43.739Z,7.40
2019-04-30T13:36:12.612Z,6.60
2019-04-30T13:38:49.041Z,6.42
2019-04-30T13:41:26.798Z,6.95
2019-04-30T13:43:58.763Z,7.15
2019-04-30T13:46:28.510Z,8.00
2019-04-30T13:48:57.243Z,7.80
2019-04-30T13:51:25.940Z,6.53
2019-04-30T13:53:54.712Z,7.45
2019-04-30T13:56:23.255Z,6.95
2019-04-30T13:58:51.937Z,6.47
2019-04-30T14:01:21.406Z,7.20
2019-04-30T14:03:54.556Z,6.50
2019-04-30T14:06:30.588Z,7.17
2019-04-30T14:09:06.378Z,7.37
2019-04-30T14:11:34.895Z,6.85
2019-04-30T14:14:03.755Z,7.00
2019-04-30T14:16:32.287Z,7.17
2019-04-30T14:19:01.048Z,6.72
2019-04-30T14:21:34.600Z,6.80
2019-04-30T14:24:00.251Z,7.33
2019-04-30T14:26:29.242Z,6.92
2019-04-30T14:28:58.877Z,6.70
2019-04-30T14:31:28.809Z,7.12
2019-04-30T14:33:59.212Z,6.70
2019-04-30T14:36:29.212Z,6.20
2019-04-30T14:39:13.063Z,6.35
2019-04-30T14:41:31.797Z,6.53
2019-04-30T14:44:03.517Z,6.20
2019-04-30T14:46:34.429Z,6.15
2019-04-30T14:49:15.506Z,6.22
2019-04-30T14:51:44.048Z,6.35
2019-04-30T14:54:17.165Z,6.15
2019-04-30T14:56:49.291Z,6.70
2019-04-30T14:59:24.499Z,6.78
2019-04-30T15:02:03.836Z,7.00
2019-04-30T15:04:32.583Z,7.17
2019-04-30T15:07:01.272Z,6.97
2019-04-30T15:09:30.054Z,7.00
2019-04-30T15:11:58.658Z,6.50
2019-04-30T15:14:27.102Z,6.47
2019-04-30T15:16:55.848Z,6.42
2019-04-30T15:19:24.290Z,6.40
2019-04-30T15:21:52.728Z,7.00
2019-04-30T15:24:22.917Z,6.62
2019-04-30T15:26:57.772Z,6.60
2019-04-30T15:29:21.887Z,6.65
2019-04-30T15:31:50.695Z,6.17
2019-04-30T15:34:19.350Z,6.00
2019-04-30T15:36:49.246Z,6.78
2019-04-30T15:39:22.190Z,6.72
2019-04-30T15:41:51.142Z,6.40
2019-04-30T15:44:19.649Z,4.78
2019-04-30T15:46:48.615Z,4.80
2019-04-30T15:49:18.759Z,4.85
2019-04-30T15:51:47.520Z,4.60
2019-04-30T15:54:16.050Z,4.70
2019-04-30T15:56:44.514Z,4.65
2019-04-30T15:59:20.878Z,5.03
2019-04-30T16:01:54.308Z,4.47
2019-04-30T16:04:40.800Z,4.20
2019-04-30T16:07:09.698Z,5.17
2019-04-30T16:09:49.058Z,4.75
2019-04-30T16:12:22.512Z,4.90
2019-04-30T16:14:51.019Z,4.35
2019-04-30T16:17:21.381Z,4.83
2019-04-30T16:19:50.143Z,5.15
2019-04-30T16:22:19.187Z,4.30
2019-04-30T16:24:49.620Z,3.80
2019-04-30T16:27:19.162Z,3.52
2019-04-30T16:29:49.803Z,4.65
2019-04-30T16:32:19.424Z,5.62
2019-04-30T16:34:49.827Z,4.85
2019-04-30T16:37:19.949Z,4.90
2019-04-30T16:39:48.435Z,5.08
2019-04-30T16:42:18.895Z,4.83
2019-04-30T16:44:47.830Z,4.53
2019-04-30T16:47:17.115Z,4.70
2019-04-30T16:49:45.965Z,5.12
2019-04-30T16:52:14.441Z,4.92
2019-04-30T16:54:42.965Z,5.25
2019-04-30T16:57:11.468Z,5.30
2019-04-30T16:59:41.933Z,5.50
2019-04-30T17:02:11.311Z,5.20
2019-04-30T17:04:41.415Z,4.50
2019-04-30T17:07:20.568Z,5.13
2019-04-30T17:09:51.022Z,4.30
2019-04-30T17:12:21.267Z,4.40
2019-04-30T17:15:19.125Z,4.35
2019-04-30T17:17:49.095Z,4.58
2019-04-30T17:20:18.487Z,4.37
2019-04-30T17:22:49.645Z,4.70
2019-04-30T17:25:18.365Z,4.60
2019-04-30T17:27:47.448Z,4.30
2019-04-30T17:30:16.546Z,4.43
2019-04-30T17:32:45.227Z,4.63
2019-04-30T17:35:14.059Z,4.37
2019-04-30T17:37:43.152Z,5.73
2019-04-30T17:40:12.012Z,6.23
2019-04-30T17:42:40.447Z,6.00
2019-04-30T17:45:09.860Z,5.93
2019-04-30T17:47:38.607Z,6.10
2019-04-30T17:50:08.951Z,6.33
2019-04-30T17:52:38.757Z,6.93
2019-04-30T17:55:09.618Z,6.73
2019-04-30T17:57:40.326Z,6.80
2019-04-30T18:00:18.681Z,7.00
2019-04-30T18:02:42.753Z,7.67
2019-04-30T18:05:11.675Z,7.57
2019-04-30T18:07:40.265Z,7.00
2019-04-30T18:10:10.983Z,7.20
2019-04-30T18:12:39.429Z,8.00
2019-04-30T18:15:12.597Z,7.57
2019-04-30T18:17:42.930Z,7.60
2019-04-30T18:20:13.071Z,8.50
2019-04-30T18:22:49.967Z,8.30
2019-04-30T18:25:29.343Z,7.13
2019-04-30T18:28:04.813Z,6.07
2019-04-30T18:30:34.893Z,5.90
2019-04-30T18:33:04.219Z,6.40
2019-04-30T18:35:32.890Z,6.23
2019-04-30T18:38:01.792Z,6.37
2019-04-30T18:40:30.455Z,6.30
2019-04-30T18:42:59.473Z,6.47
2019-04-30T18:45:28.887Z,6.40
2019-04-30T18:47:59.521Z,5.93
2019-04-30T18:50:28.098Z,5.63
2019-04-30T18:52:58.688Z,4.93
2019-04-30T18:55:27.382Z,4.50
2019-04-30T18:57:57.127Z,4.33
2019-04-30T19:00:39.902Z,4.77
2019-04-30T19:03:08.778Z,4.70
2019-04-30T19:05:39.360Z,4.60
2019-04-30T19:08:12.735Z,4.07
2019-04-30T19:10:54.635Z,4.50
2019-04-30T19:13:33.487Z,4.70
2019-04-30T19:16:19.740Z,4.27
2019-04-30T19:18:47.905Z,4.87
2019-04-30T19:21:16.354Z,4.77
2019-04-30T19:23:44.904Z,4.90
2019-04-30T19:26:13.455Z,4.80
2019-04-30T19:28:42.231Z,4.33
2019-04-30T19:31:11.752Z,4.50
2019-04-30T19:33:40.589Z,4.30
2019-04-30T19:36:09.856Z,4.20
2019-04-30T19:38:38.670Z,4.10
2019-04-30T19:41:09.091Z,4.43
2019-04-30T19:43:39.089Z,4.50
2019-04-30T19:46:09.189Z,4.50
2019-04-30T19:48:37.817Z,4.60
2019-04-30T19:51:08.715Z,4.57
2019-04-30T19:53:37.138Z,5.03
2019-04-30T19:56:05.737Z,4.60
2019-04-30T19:58:52.296Z,4.83
2019-04-30T20:01:04.701Z,4.50
2019-04-30T20:03:33.523Z,4.50
2019-04-30T20:06:02.064Z,4.97
2019-04-30T20:08:30.506Z,4.83
2019-04-30T20:10:59.397Z,4.87
2019-04-30T20:13:33.959Z,4.40
2019-04-30T20:15:59.395Z,4.60
2019-04-30T20:18:29.252Z,4.20
2019-04-30T20:21:01.138Z,4.10
2019-04-30T20:23:29.855Z,4.17
2019-04-30T20:25:58.544Z,4.57
2019-04-30T20:28:38.408Z,4.90
2019-04-30T20:30:57.428Z,6.53
2019-04-30T20:33:26.143Z,6.13
2019-04-30T20:35:54.882Z,6.17
2019-04-30T20:38:27.619Z,7.03
2019-04-30T20:41:00.327Z,6.93
2019-04-30T20:43:28.444Z,7.33
2019-04-30T20:45:58.370Z,7.90
2019-04-30T20:48:27.372Z,6.47
2019-04-30T20:50:55.803Z,6.17
2019-04-30T20:53:24.500Z,5.97
2019-04-30T20:55:53.112Z,6.13
2019-04-30T20:58:21.796Z,6.13
2019-04-30T21:01:00.546Z,5.93
2019-04-30T21:03:20.676Z,6.27
2019-04-30T21:05:49.359Z,7.00
2019-04-30T21:08:18.145Z,6.33
2019-04-30T21:10:46.834Z,6.07
2019-04-30T21:13:15.383Z,6.10
2019-04-30T21:15:43.806Z,5.60
2019-04-30T21:18:12.505Z,4.87
2019-04-30T21:20:41.044Z,4.70
2019-04-30T21:23:09.521Z,4.60
2019-04-30T21:25:38.721Z,5.50
2019-04-30T21:28:09.595Z,4.77
2019-04-30T21:30:37.736Z,4.87
2019-04-30T21:33:10.835Z,5.10
2019-04-30T21:35:41.173Z,7.13
2019-04-30T21:38:09.698Z,5.27
2019-04-30T21:40:39.443Z,5.20
2019-04-30T21:43:08.150Z,5.13
2019-04-30T21:45:36.649Z,5.70
2019-04-30T21:48:05.154Z,5.70
2019-04-30T21:50:33.614Z,5.97
2019-04-30T21:53:02.039Z,9.53
2019-04-30T21:55:30.779Z,13.03
2019-04-30T21:57:59.518Z,13.13
2019-04-30T22:00:36.868Z,12.00
2019-04-30T22:03:09.572Z,9.23
2019-04-30T22:05:38.028Z,8.17
2019-04-30T22:08:08.625Z,8.47
2019-04-30T22:10:37.212Z,7.47
2019-04-30T22:13:05.797Z,6.50
2019-04-30T22:15:34.491Z,6.53
2019-04-30T22:18:03.282Z,6.40
2019-04-30T22:20:32.112Z,7.23
2019-04-30T22:23:00.799Z,6.77
2019-04-30T22:25:29.429Z,7.27
2019-04-30T22:27:58.182Z,7.40
2019-04-30T22:30:26.895Z,7.07
2019-04-30T22:32:55.351Z,7.17
2019-04-30T22:35:28.509Z,7.87
2019-04-30T22:38:01.799Z,7.63
2019-04-30T22:40:31.630Z,7.03
2019-04-30T22:43:00.479Z,6.23
2019-04-30T22:45:30.552Z,5.23
2019-04-30T22:47:59.346Z,5.50
2019-04-30T22:50:28.023Z,5.20
2019-04-30T22:52:56.780Z,5.37
2019-04-30T22:55:25.547Z,5.47
2019-04-30T22:57:54.308Z,5.20
2019-04-30T23:00:24.467Z,5.73
2019-04-30T23:02:54.864Z,5.83
2019-04-30T23:05:23.477Z,5.67
2019-04-30T23:07:51.919Z,5.30
2019-04-30T23:10:20.433Z,6.43
2019-04-30T23:12:49.144Z,5.73
2019-04-30T23:15:19.211Z,5.63
2019-04-30T23:17:47.671Z,5.70
2019-04-30T23:20:16.185Z,8.37
2019-04-30T23:22:44.890Z,7.87
2019-04-30T23:25:13.469Z,7.03
2019-04-30T23:27:41.899Z,6.57
2019-04-30T23:30:10.755Z,6.93
2019-04-30T23:32:39.443Z,7.00
2019-04-30T23:35:07.970Z,7.23
2019-04-30T23:37:36.390Z,6.77
2019-04-30T23:40:24.073Z,7.07
2019-04-30T23:42:54.113Z,6.87
2019-04-30T23:45:22.847Z,5.90
2019-04-30T23:47:51.589Z,6.70
2019-04-30T23:50:20.089Z,6.17
2019-04-30T23:52:48.863Z,5.70
2019-04-30T23:55:17.435Z,6.63
2019-04-30T23:57:46.099Z,6.50
